sensor_id;sensor_type;location;lat;lon;timestamp;temperature;humidity
32173;DHT22;18679;45.190;5.722;2022-09-09T00:01:36;24.10;45.40
32173;DHT22;18679;45.190;5.722;2022-09-09T00:04:39;24.10;45.50
32173;DHT22;18679;45.190;5.722;2022-09-09T00:10:51;24.00;45.70
32173;DHT22;18679;45.190;5.722;2022-09-09T00:13:57;24.00;45.80
32173;DHT22;18679;45.190;5.722;2022-09-09T00:17:12;24.00;45.90
32173;DHT22;18679;45.190;5.722;2022-09-09T00:23:34;23.90;46.20
32173;DHT22;18679;45.190;5.722;2022-09-09T00:26:49;23.80;46.50
32173;DHT22;18679;45.190;5.722;2022-09-09T00:30:40;23.70;46.80
32173;DHT22;18679;45.190;5.722;2022-09-09T00:33:20;23.70;46.90
32173;DHT22;18679;45.190;5.722;2022-09-09T00:36:24;23.60;47.10
32173;DHT22;18679;45.190;5.722;2022-09-09T00:39:46;23.50;47.30
32173;DHT22;18679;45.190;5.722;2022-09-09T00:43:29;23.40;47.30
32173;DHT22;18679;45.190;5.722;2022-09-09T00:46:54;23.40;47.30
32173;DHT22;18679;45.190;5.722;2022-09-09T00:50:00;23.40;47.50
32173;DHT22;18679;45.190;5.722;2022-09-09T00:56:14;23.40;47.50
32173;DHT22;18679;45.190;5.722;2022-09-09T00:59:28;23.40;47.50
32173;DHT22;18679;45.190;5.722;2022-09-09T01:02:44;23.40;47.50
32173;DHT22;18679;45.190;5.722;2022-09-09T01:06:34;23.50;47.60
32173;DHT22;18679;45.190;5.722;2022-09-09T01:09:57;23.40;47.60
32173;DHT22;18679;45.190;5.722;2022-09-09T01:13:04;23.40;47.70
32173;DHT22;18679;45.190;5.722;2022-09-09T01:16:11;23.40;47.80
32173;DHT22;18679;45.190;5.722;2022-09-09T01:19:20;23.40;48.00
32173;DHT22;18679;45.190;5.722;2022-09-09T01:26:41;23.30;48.20
32173;DHT22;18679;45.190;5.722;2022-09-09T01:29:50;23.30;48.20
32173;DHT22;18679;45.190;5.722;2022-09-09T01:32:58;23.30;48.20
32173;DHT22;18679;45.190;5.722;2022-09-09T01:39:10;23.30;48.40
32173;DHT22;18679;45.190;5.722;2022-09-09T01:42:15;23.30;48.50
32173;DHT22;18679;45.190;5.722;2022-09-09T01:45:21;23.30;48.60
32173;DHT22;18679;45.190;5.722;2022-09-09T01:48:23;23.20;48.60
32173;DHT22;18679;45.190;5.722;2022-09-09T01:51:36;23.20;48.90
32173;DHT22;18679;45.190;5.722;2022-09-09T01:54:41;23.20;49.30
32173;DHT22;18679;45.190;5.722;2022-09-09T01:58:32;23.10;49.50
32173;DHT22;18679;45.190;5.722;2022-09-09T02:04:50;23.00;50.70
32173;DHT22;18679;45.190;5.722;2022-09-09T02:11:18;22.90;51.30
32173;DHT22;18679;45.190;5.722;2022-09-09T02:14:36;22.80;51.50
32173;DHT22;18679;45.190;5.722;2022-09-09T02:17:41;22.80;52.00
32173;DHT22;18679;45.190;5.722;2022-09-09T02:20:49;22.80;52.40
32173;DHT22;18679;45.190;5.722;2022-09-09T02:23:53;22.70;52.50
32173;DHT22;18679;45.190;5.722;2022-09-09T02:26:55;22.70;52.70
32173;DHT22;18679;45.190;5.722;2022-09-09T02:29:59;22.70;53.00
32173;DHT22;18679;45.190;5.722;2022-09-09T02:33:16;22.70;53.10
32173;DHT22;18679;45.190;5.722;2022-09-09T02:36:23;22.70;53.40
32173;DHT22;18679;45.190;5.722;2022-09-09T02:39:24;22.60;53.70
32173;DHT22;18679;45.190;5.722;2022-09-09T02:42:26;22.60;54.10
32173;DHT22;18679;45.190;5.722;2022-09-09T02:45:41;22.50;54.40
32173;DHT22;18679;45.190;5.722;2022-09-09T02:52:18;22.40;55.00
32173;DHT22;18679;45.190;5.722;2022-09-09T02:55:24;22.30;55.10
32173;DHT22;18679;45.190;5.722;2022-09-09T02:58:30;22.30;55.20
32173;DHT22;18679;45.190;5.722;2022-09-09T03:01:35;22.20;55.30
32173;DHT22;18679;45.190;5.722;2022-09-09T03:04:37;22.20;55.40
32173;DHT22;18679;45.190;5.722;2022-09-09T03:07:39;22.20;55.40
32173;DHT22;18679;45.190;5.722;2022-09-09T03:10:41;22.20;55.60
32173;DHT22;18679;45.190;5.722;2022-09-09T03:13:42;22.10;55.70
32173;DHT22;18679;45.190;5.722;2022-09-09T03:16:45;22.10;55.60
32173;DHT22;18679;45.190;5.722;2022-09-09T03:19:46;22.10;55.50
32173;DHT22;18679;45.190;5.722;2022-09-09T03:22:50;22.10;55.30
32173;DHT22;18679;45.190;5.722;2022-09-09T03:25:51;22.10;55.20
32173;DHT22;18679;45.190;5.722;2022-09-09T03:29:00;22.00;55.10
32173;DHT22;18679;45.190;5.722;2022-09-09T03:32:02;22.00;55.00
32173;DHT22;18679;45.190;5.722;2022-09-09T03:35:03;21.90;54.90
32173;DHT22;18679;45.190;5.722;2022-09-09T03:38:05;21.90;54.80
32173;DHT22;18679;45.190;5.722;2022-09-09T03:41:08;21.90;54.70
32173;DHT22;18679;45.190;5.722;2022-09-09T03:44:12;21.90;54.70
32173;DHT22;18679;45.190;5.722;2022-09-09T03:47:20;21.80;54.60
32173;DHT22;18679;45.190;5.722;2022-09-09T03:50:24;21.80;54.60
32173;DHT22;18679;45.190;5.722;2022-09-09T03:53:27;21.70;54.60
32173;DHT22;18679;45.190;5.722;2022-09-09T03:56:28;21.70;54.60
32173;DHT22;18679;45.190;5.722;2022-09-09T03:59:30;21.70;54.50
32173;DHT22;18679;45.190;5.722;2022-09-09T04:02:31;21.70;54.60
32173;DHT22;18679;45.190;5.722;2022-09-09T04:05:32;21.70;54.60
32173;DHT22;18679;45.190;5.722;2022-09-09T04:08:34;21.70;54.50
32173;DHT22;18679;45.190;5.722;2022-09-09T04:11:36;21.80;54.50
32173;DHT22;18679;45.190;5.722;2022-09-09T04:14:37;21.70;54.40
32173;DHT22;18679;45.190;5.722;2022-09-09T04:17:40;21.80;54.60
32173;DHT22;18679;45.190;5.722;2022-09-09T04:20:41;21.80;54.70
32173;DHT22;18679;45.190;5.722;2022-09-09T04:23:44;21.80;54.90
32173;DHT22;18679;45.190;5.722;2022-09-09T04:26:46;21.70;55.00
32173;DHT22;18679;45.190;5.722;2022-09-09T04:29:49;21.70;55.30
32173;DHT22;18679;45.190;5.722;2022-09-09T04:32:50;21.60;55.00
32173;DHT22;18679;45.190;5.722;2022-09-09T04:35:52;21.60;54.80
32173;DHT22;18679;45.190;5.722;2022-09-09T04:38:55;21.60;54.70
32173;DHT22;18679;45.190;5.722;2022-09-09T04:41:56;21.50;54.60
32173;DHT22;18679;45.190;5.722;2022-09-09T04:44:58;21.50;54.60
32173;DHT22;18679;45.190;5.722;2022-09-09T04:47:59;21.40;54.60
32173;DHT22;18679;45.190;5.722;2022-09-09T04:51:03;21.40;54.70
32173;DHT22;18679;45.190;5.722;2022-09-09T04:54:05;21.40;54.80
32173;DHT22;18679;45.190;5.722;2022-09-09T04:57:07;21.40;54.70
32173;DHT22;18679;45.190;5.722;2022-09-09T05:00:08;21.30;54.50
32173;DHT22;18679;45.190;5.722;2022-09-09T05:03:13;21.40;54.50
32173;DHT22;18679;45.190;5.722;2022-09-09T05:06:16;21.40;54.50
32173;DHT22;18679;45.190;5.722;2022-09-09T05:09:17;21.40;54.50
32173;DHT22;18679;45.190;5.722;2022-09-09T05:12:19;21.40;54.40
32173;DHT22;18679;45.190;5.722;2022-09-09T05:15:25;21.40;54.40
32173;DHT22;18679;45.190;5.722;2022-09-09T05:18:26;21.40;54.40
32173;DHT22;18679;45.190;5.722;2022-09-09T05:21:27;21.30;54.40
32173;DHT22;18679;45.190;5.722;2022-09-09T05:24:29;21.30;54.40
32173;DHT22;18679;45.190;5.722;2022-09-09T05:27:34;21.40;54.40
32173;DHT22;18679;45.190;5.722;2022-09-09T05:30:35;21.30;54.30
32173;DHT22;18679;45.190;5.722;2022-09-09T05:33:44;21.40;54.30
32173;DHT22;18679;45.190;5.722;2022-09-09T05:36:47;21.30;54.20
32173;DHT22;18679;45.190;5.722;2022-09-09T05:39:49;21.30;54.00
32173;DHT22;18679;45.190;5.722;2022-09-09T05:42:51;21.30;54.00
32173;DHT22;18679;45.190;5.722;2022-09-09T05:46:08;21.30;54.00
32173;DHT22;18679;45.190;5.722;2022-09-09T05:49:11;21.30;54.00
32173;DHT22;18679;45.190;5.722;2022-09-09T05:52:14;21.30;53.90
32173;DHT22;18679;45.190;5.722;2022-09-09T05:55:16;21.20;53.90
32173;DHT22;18679;45.190;5.722;2022-09-09T05:58:17;21.20;54.00
32173;DHT22;18679;45.190;5.722;2022-09-09T06:01:32;21.20;54.00
32173;DHT22;18679;45.190;5.722;2022-09-09T06:04:35;21.20;54.10
32173;DHT22;18679;45.190;5.722;2022-09-09T06:07:37;21.20;54.30
32173;DHT22;18679;45.190;5.722;2022-09-09T06:10:39;21.20;54.40
32173;DHT22;18679;45.190;5.722;2022-09-09T06:13:41;21.20;54.60
32173;DHT22;18679;45.190;5.722;2022-09-09T06:16:43;21.20;54.60
32173;DHT22;18679;45.190;5.722;2022-09-09T06:19:54;21.10;54.50
32173;DHT22;18679;45.190;5.722;2022-09-09T06:22:55;21.10;54.60
32173;DHT22;18679;45.190;5.722;2022-09-09T06:26:18;21.10;54.70
32173;DHT22;18679;45.190;5.722;2022-09-09T06:29:20;21.10;54.60
32173;DHT22;18679;45.190;5.722;2022-09-09T06:32:25;21.10;54.50
32173;DHT22;18679;45.190;5.722;2022-09-09T06:35:28;21.20;54.50
32173;DHT22;18679;45.190;5.722;2022-09-09T06:38:29;21.20;54.40
32173;DHT22;18679;45.190;5.722;2022-09-09T06:41:32;21.20;54.40
32173;DHT22;18679;45.190;5.722;2022-09-09T06:44:35;21.30;54.50
32173;DHT22;18679;45.190;5.722;2022-09-09T06:47:40;21.30;54.50
32173;DHT22;18679;45.190;5.722;2022-09-09T06:50:42;21.30;54.50
32173;DHT22;18679;45.190;5.722;2022-09-09T06:53:50;21.30;54.70
32173;DHT22;18679;45.190;5.722;2022-09-09T06:56:51;21.30;54.80
32173;DHT22;18679;45.190;5.722;2022-09-09T06:59:57;21.40;54.80
32173;DHT22;18679;45.190;5.722;2022-09-09T07:02:58;21.40;54.80
32173;DHT22;18679;45.190;5.722;2022-09-09T07:06:00;21.40;54.80
32173;DHT22;18679;45.190;5.722;2022-09-09T07:09:05;21.40;54.70
32173;DHT22;18679;45.190;5.722;2022-09-09T07:12:07;21.40;54.80
32173;DHT22;18679;45.190;5.722;2022-09-09T07:15:11;21.50;54.70
32173;DHT22;18679;45.190;5.722;2022-09-09T07:18:15;21.60;54.60
32173;DHT22;18679;45.190;5.722;2022-09-09T07:21:17;21.80;54.50
32173;DHT22;18679;45.190;5.722;2022-09-09T07:24:18;21.90;54.30
32173;DHT22;18679;45.190;5.722;2022-09-09T07:27:19;22.00;54.10
32173;DHT22;18679;45.190;5.722;2022-09-09T07:30:22;22.10;53.80
32173;DHT22;18679;45.190;5.722;2022-09-09T07:33:25;22.10;53.60
32173;DHT22;18679;45.190;5.722;2022-09-09T07:36:31;22.20;53.70
32173;DHT22;18679;45.190;5.722;2022-09-09T07:39:33;22.20;53.60
32173;DHT22;18679;45.190;5.722;2022-09-09T07:42:35;22.30;53.50
32173;DHT22;18679;45.190;5.722;2022-09-09T07:45:38;22.40;53.30
32173;DHT22;18679;45.190;5.722;2022-09-09T07:48:44;22.50;53.20
32173;DHT22;18679;45.190;5.722;2022-09-09T07:51:46;22.70;53.00
32173;DHT22;18679;45.190;5.722;2022-09-09T07:54:49;22.80;52.90
32173;DHT22;18679;45.190;5.722;2022-09-09T07:57:52;22.80;52.70
32173;DHT22;18679;45.190;5.722;2022-09-09T08:00:55;23.00;52.50
32173;DHT22;18679;45.190;5.722;2022-09-09T08:04:02;23.10;52.40
32173;DHT22;18679;45.190;5.722;2022-09-09T08:07:05;23.20;52.00
32173;DHT22;18679;45.190;5.722;2022-09-09T08:10:13;23.30;51.80
32173;DHT22;18679;45.190;5.722;2022-09-09T08:13:15;23.40;51.50
32173;DHT22;18679;45.190;5.722;2022-09-09T08:16:28;23.60;51.00
32173;DHT22;18679;45.190;5.722;2022-09-09T08:19:31;23.80;50.60
32173;DHT22;18679;45.190;5.722;2022-09-09T08:22:34;23.90;50.40
32173;DHT22;18679;45.190;5.722;2022-09-09T08:25:38;24.10;49.80
32173;DHT22;18679;45.190;5.722;2022-09-09T08:28:40;24.10;49.30
32173;DHT22;18679;45.190;5.722;2022-09-09T08:31:49;24.30;49.30
32173;DHT22;18679;45.190;5.722;2022-09-09T08:34:51;24.40;49.20
32173;DHT22;18679;45.190;5.722;2022-09-09T08:37:56;24.50;49.00
32173;DHT22;18679;45.190;5.722;2022-09-09T08:48:04;24.70;47.70
32173;DHT22;18679;45.190;5.722;2022-09-09T08:51:08;24.70;47.80
32173;DHT22;18679;45.190;5.722;2022-09-09T08:54:12;24.80;47.70
32173;DHT22;18679;45.190;5.722;2022-09-09T08:57:19;25.00;47.60
32173;DHT22;18679;45.190;5.722;2022-09-09T09:00:20;25.10;47.30
32173;DHT22;18679;45.190;5.722;2022-09-09T09:10:07;25.60;46.20
32173;DHT22;18679;45.190;5.722;2022-09-09T09:13:25;25.70;45.30
32173;DHT22;18679;45.190;5.722;2022-09-09T09:19:51;26.00;42.70
32173;DHT22;18679;45.190;5.722;2022-09-09T09:22:54;26.10;41.30
32173;DHT22;18679;45.190;5.722;2022-09-09T09:26:00;26.20;40.60
32173;DHT22;18679;45.190;5.722;2022-09-09T09:29:15;26.30;40.00
32173;DHT22;18679;45.190;5.722;2022-09-09T09:32:18;26.40;39.10
32173;DHT22;18679;45.190;5.722;2022-09-09T09:35:21;26.50;38.90
32173;DHT22;18679;45.190;5.722;2022-09-09T09:38:23;26.60;38.70
32173;DHT22;18679;45.190;5.722;2022-09-09T09:41:40;26.60;38.00
32173;DHT22;18679;45.190;5.722;2022-09-09T09:44:43;26.60;37.70
32173;DHT22;18679;45.190;5.722;2022-09-09T09:48:04;26.70;37.60
32173;DHT22;18679;45.190;5.722;2022-09-09T09:51:10;26.70;37.50
32173;DHT22;18679;45.190;5.722;2022-09-09T09:54:22;26.70;37.30
32173;DHT22;18679;45.190;5.722;2022-09-09T09:57:31;26.80;36.70
32173;DHT22;18679;45.190;5.722;2022-09-09T10:00:48;26.70;36.50
32173;DHT22;18679;45.190;5.722;2022-09-09T10:03:51;26.80;36.50
32173;DHT22;18679;45.190;5.722;2022-09-09T10:06:53;26.80;36.50
32173;DHT22;18679;45.190;5.722;2022-09-09T10:09:55;26.90;36.30
32173;DHT22;18679;45.190;5.722;2022-09-09T10:13:10;26.90;36.20
32173;DHT22;18679;45.190;5.722;2022-09-09T10:19:36;27.00;35.80
32173;DHT22;18679;45.190;5.722;2022-09-09T10:22:39;27.10;35.60
32173;DHT22;18679;45.190;5.722;2022-09-09T10:32:48;27.30;35.30
32173;DHT22;18679;45.190;5.722;2022-09-09T10:36:13;27.40;35.10
32173;DHT22;18679;45.190;5.722;2022-09-09T10:42:16;27.80;34.60
32173;DHT22;18679;45.190;5.722;2022-09-09T10:45:23;28.20;34.20
32173;DHT22;18679;45.190;5.722;2022-09-09T10:52:43;28.70;33.50
32173;DHT22;18679;45.190;5.722;2022-09-09T10:55:53;28.90;33.10
32173;DHT22;18679;45.190;5.722;2022-09-09T10:59:07;29.10;33.00
32173;DHT22;18679;45.190;5.722;2022-09-09T11:02:19;29.20;32.50
32173;DHT22;18679;45.190;5.722;2022-09-09T11:05:46;29.30;32.30
32173;DHT22;18679;45.190;5.722;2022-09-09T11:08:50;29.50;31.90
32173;DHT22;18679;45.190;5.722;2022-09-09T11:11:55;29.70;31.70
32173;DHT22;18679;45.190;5.722;2022-09-09T11:15:20;29.80;31.20
32173;DHT22;18679;45.190;5.722;2022-09-09T11:18:23;29.80;30.80
32173;DHT22;18679;45.190;5.722;2022-09-09T11:21:34;29.80;30.90
32173;DHT22;18679;45.190;5.722;2022-09-09T11:24:40;29.80;31.10
32173;DHT22;18679;45.190;5.722;2022-09-09T11:28:02;30.00;31.00
32173;DHT22;18679;45.190;5.722;2022-09-09T11:40:46;30.80;29.60
32173;DHT22;18679;45.190;5.722;2022-09-09T11:43:48;31.10;29.40
32173;DHT22;18679;45.190;5.722;2022-09-09T11:46:51;31.20;29.10
32173;DHT22;18679;45.190;5.722;2022-09-09T11:49:53;31.40;29.00
32173;DHT22;18679;45.190;5.722;2022-09-09T11:56:27;31.80;28.60
32173;DHT22;18679;45.190;5.722;2022-09-09T11:59:31;32.00;28.30
32173;DHT22;18679;45.190;5.722;2022-09-09T12:02:32;32.20;28.00
32173;DHT22;18679;45.190;5.722;2022-09-09T12:05:42;32.40;27.70
32173;DHT22;18679;45.190;5.722;2022-09-09T12:08:49;32.70;27.40
32173;DHT22;18679;45.190;5.722;2022-09-09T12:11:51;33.00;27.10
32173;DHT22;18679;45.190;5.722;2022-09-09T12:18:16;33.70;26.10
32173;DHT22;18679;45.190;5.722;2022-09-09T12:21:47;34.00;25.40
32173;DHT22;18679;45.190;5.722;2022-09-09T12:28:18;35.10;24.30
32173;DHT22;18679;45.190;5.722;2022-09-09T12:31:35;35.70;23.50
32173;DHT22;18679;45.190;5.722;2022-09-09T12:34:43;36.10;22.90
32173;DHT22;18679;45.190;5.722;2022-09-09T12:40:55;37.20;21.70
32173;DHT22;18679;45.190;5.722;2022-09-09T12:44:09;37.60;21.00
32173;DHT22;18679;45.190;5.722;2022-09-09T12:47:11;38.20;20.60
32173;DHT22;18679;45.190;5.722;2022-09-09T12:50:19;38.70;20.20
32173;DHT22;18679;45.190;5.722;2022-09-09T12:53:33;39.30;20.40
32173;DHT22;18679;45.190;5.722;2022-09-09T12:56:35;39.70;19.40
32173;DHT22;18679;45.190;5.722;2022-09-09T12:59:41;40.00;19.00
32173;DHT22;18679;45.190;5.722;2022-09-09T13:02:56;40.30;18.90
32173;DHT22;18679;45.190;5.722;2022-09-09T13:05:59;40.60;18.50
32173;DHT22;18679;45.190;5.722;2022-09-09T13:09:10;41.00;18.00
32173;DHT22;18679;45.190;5.722;2022-09-09T13:12:19;41.20;17.60
32173;DHT22;18679;45.190;5.722;2022-09-09T13:15:24;41.10;17.40
32173;DHT22;18679;45.190;5.722;2022-09-09T13:18:33;41.20;17.40
32173;DHT22;18679;45.190;5.722;2022-09-09T13:21:37;41.20;17.10
32173;DHT22;18679;45.190;5.722;2022-09-09T13:24:38;40.90;17.30
32173;DHT22;18679;45.190;5.722;2022-09-09T13:34:33;41.70;16.80
32173;DHT22;18679;45.190;5.722;2022-09-09T13:37:38;41.80;16.40
32173;DHT22;18679;45.190;5.722;2022-09-09T13:40:56;41.90;16.40
32173;DHT22;18679;45.190;5.722;2022-09-09T13:43:58;41.60;16.30
32173;DHT22;18679;45.190;5.722;2022-09-09T13:50:27;39.50;17.50
32173;DHT22;18679;45.190;5.722;2022-09-09T13:53:28;38.20;18.30
32173;DHT22;18679;45.190;5.722;2022-09-09T13:56:29;37.00;18.90
32173;DHT22;18679;45.190;5.722;2022-09-09T13:59:30;35.90;19.40
32173;DHT22;18679;45.190;5.722;2022-09-09T14:02:32;35.00;19.90
32173;DHT22;18679;45.190;5.722;2022-09-09T14:05:34;34.40;20.40
32173;DHT22;18679;45.190;5.722;2022-09-09T14:08:35;33.80;20.70
32173;DHT22;18679;45.190;5.722;2022-09-09T14:11:37;33.30;21.20
32173;DHT22;18679;45.190;5.722;2022-09-09T14:14:38;32.90;21.50
32173;DHT22;18679;45.190;5.722;2022-09-09T14:17:39;32.40;21.70
32173;DHT22;18679;45.190;5.722;2022-09-09T14:20:41;32.20;21.90
32173;DHT22;18679;45.190;5.722;2022-09-09T14:23:42;31.90;22.00
32173;DHT22;18679;45.190;5.722;2022-09-09T14:26:43;31.80;21.90
32173;DHT22;18679;45.190;5.722;2022-09-09T14:29:44;31.60;21.90
32173;DHT22;18679;45.190;5.722;2022-09-09T14:32:45;31.40;21.90
32173;DHT22;18679;45.190;5.722;2022-09-09T14:35:45;31.30;22.00
32173;DHT22;18679;45.190;5.722;2022-09-09T14:38:46;31.10;22.10
32173;DHT22;18679;45.190;5.722;2022-09-09T14:41:47;31.10;22.10
32173;DHT22;18679;45.190;5.722;2022-09-09T14:44:48;30.90;22.10
32173;DHT22;18679;45.190;5.722;2022-09-09T14:47:49;30.80;22.10
32173;DHT22;18679;45.190;5.722;2022-09-09T14:50:50;30.80;22.00
32173;DHT22;18679;45.190;5.722;2022-09-09T14:53:52;30.80;21.90
32173;DHT22;18679;45.190;5.722;2022-09-09T14:56:53;30.80;21.70
32173;DHT22;18679;45.190;5.722;2022-09-09T14:59:54;30.70;21.70
32173;DHT22;18679;45.190;5.722;2022-09-09T15:02:55;30.60;21.70
32173;DHT22;18679;45.190;5.722;2022-09-09T15:05:56;30.60;21.70
32173;DHT22;18679;45.190;5.722;2022-09-09T15:08:59;30.50;21.70
32173;DHT22;18679;45.190;5.722;2022-09-09T15:12:01;30.50;21.70
32173;DHT22;18679;45.190;5.722;2022-09-09T15:15:03;30.50;22.20
32173;DHT22;18679;45.190;5.722;2022-09-09T15:18:04;30.40;21.70
32173;DHT22;18679;45.190;5.722;2022-09-09T15:21:05;30.40;22.30
32173;DHT22;18679;45.190;5.722;2022-09-09T15:24:06;30.30;21.80
32173;DHT22;18679;45.190;5.722;2022-09-09T15:27:08;30.30;22.00
32173;DHT22;18679;45.190;5.722;2022-09-09T15:30:10;30.40;21.90
32173;DHT22;18679;45.190;5.722;2022-09-09T15:33:11;30.50;21.90
32173;DHT22;18679;45.190;5.722;2022-09-09T15:36:19;30.50;21.80
32173;DHT22;18679;45.190;5.722;2022-09-09T15:39:20;30.50;21.90
32173;DHT22;18679;45.190;5.722;2022-09-09T15:42:22;30.50;21.90
32173;DHT22;18679;45.190;5.722;2022-09-09T15:45:23;30.50;22.00
32173;DHT22;18679;45.190;5.722;2022-09-09T15:48:30;30.40;22.20
32173;DHT22;18679;45.190;5.722;2022-09-09T15:51:35;30.30;22.30
32173;DHT22;18679;45.190;5.722;2022-09-09T15:54:38;30.30;22.40
32173;DHT22;18679;45.190;5.722;2022-09-09T15:57:39;30.30;22.40
32173;DHT22;18679;45.190;5.722;2022-09-09T16:00:41;30.40;22.40
32173;DHT22;18679;45.190;5.722;2022-09-09T16:03:42;30.50;22.40
32173;DHT22;18679;45.190;5.722;2022-09-09T16:06:45;30.60;22.30
32173;DHT22;18679;45.190;5.722;2022-09-09T16:09:47;30.80;22.40
32173;DHT22;18679;45.190;5.722;2022-09-09T16:12:48;31.50;22.30
32173;DHT22;18679;45.190;5.722;2022-09-09T16:15:56;33.00;21.40
32173;DHT22;18679;45.190;5.722;2022-09-09T16:18:59;34.10;20.40
32173;DHT22;18679;45.190;5.722;2022-09-09T16:22:02;34.40;20.20
32173;DHT22;18679;45.190;5.722;2022-09-09T16:25:04;34.70;19.80
32173;DHT22;18679;45.190;5.722;2022-09-09T16:28:06;34.50;20.80
32173;DHT22;18679;45.190;5.722;2022-09-09T16:31:08;33.80;21.10
32173;DHT22;18679;45.190;5.722;2022-09-09T16:34:10;33.10;21.50
32173;DHT22;18679;45.190;5.722;2022-09-09T16:37:11;32.50;22.10
32173;DHT22;18679;45.190;5.722;2022-09-09T16:40:12;32.00;22.60
32173;DHT22;18679;45.190;5.722;2022-09-09T16:43:13;31.50;22.70
32173;DHT22;18679;45.190;5.722;2022-09-09T16:46:16;31.10;23.00
32173;DHT22;18679;45.190;5.722;2022-09-09T16:49:18;30.80;23.40
32173;DHT22;18679;45.190;5.722;2022-09-09T16:52:18;30.50;23.80
32173;DHT22;18679;45.190;5.722;2022-09-09T16:55:19;30.10;24.10
32173;DHT22;18679;45.190;5.722;2022-09-09T16:58:25;29.90;24.50
32173;DHT22;18679;45.190;5.722;2022-09-09T17:01:28;29.60;24.60
32173;DHT22;18679;45.190;5.722;2022-09-09T17:04:30;29.40;24.90
32173;DHT22;18679;45.190;5.722;2022-09-09T17:07:31;29.20;25.10
32173;DHT22;18679;45.190;5.722;2022-09-09T17:10:33;29.10;25.30
32173;DHT22;18679;45.190;5.722;2022-09-09T17:13:33;28.90;25.60
32173;DHT22;18679;45.190;5.722;2022-09-09T17:16:35;28.90;25.80
32173;DHT22;18679;45.190;5.722;2022-09-09T17:19:36;28.80;26.00
32173;DHT22;18679;45.190;5.722;2022-09-09T17:22:37;28.70;26.10
32173;DHT22;18679;45.190;5.722;2022-09-09T17:25:39;28.60;26.20
32173;DHT22;18679;45.190;5.722;2022-09-09T17:28:41;28.50;26.30
32173;DHT22;18679;45.190;5.722;2022-09-09T17:31:42;28.40;26.50
32173;DHT22;18679;45.190;5.722;2022-09-09T17:34:44;28.30;26.70
32173;DHT22;18679;45.190;5.722;2022-09-09T17:37:46;28.20;26.90
32173;DHT22;18679;45.190;5.722;2022-09-09T17:40:48;28.10;27.00
32173;DHT22;18679;45.190;5.722;2022-09-09T17:43:50;28.00;27.10
32173;DHT22;18679;45.190;5.722;2022-09-09T17:46:51;27.90;27.30
32173;DHT22;18679;45.190;5.722;2022-09-09T17:49:52;27.90;27.40
32173;DHT22;18679;45.190;5.722;2022-09-09T17:52:53;27.80;27.50
32173;DHT22;18679;45.190;5.722;2022-09-09T17:55:53;27.70;27.70
32173;DHT22;18679;45.190;5.722;2022-09-09T17:58:56;27.60;27.80
32173;DHT22;18679;45.190;5.722;2022-09-09T18:01:57;27.50;28.10
32173;DHT22;18679;45.190;5.722;2022-09-09T18:04:59;27.40;28.50
32173;DHT22;18679;45.190;5.722;2022-09-09T18:08:01;27.20;28.70
32173;DHT22;18679;45.190;5.722;2022-09-09T18:11:03;27.20;28.90
32173;DHT22;18679;45.190;5.722;2022-09-09T18:14:04;27.10;29.00
32173;DHT22;18679;45.190;5.722;2022-09-09T18:17:06;27.10;29.10
32173;DHT22;18679;45.190;5.722;2022-09-09T18:20:09;27.00;29.20
32173;DHT22;18679;45.190;5.722;2022-09-09T18:23:10;26.90;29.30
32173;DHT22;18679;45.190;5.722;2022-09-09T18:26:14;26.90;29.50
32173;DHT22;18679;45.190;5.722;2022-09-09T18:29:19;26.80;29.60
32173;DHT22;18679;45.190;5.722;2022-09-09T18:32:21;26.80;29.70
32173;DHT22;18679;45.190;5.722;2022-09-09T18:35:22;26.80;29.70
32173;DHT22;18679;45.190;5.722;2022-09-09T18:38:23;26.70;29.70
32173;DHT22;18679;45.190;5.722;2022-09-09T18:41:31;26.70;29.70
32173;DHT22;18679;45.190;5.722;2022-09-09T18:44:33;26.70;29.60
32173;DHT22;18679;45.190;5.722;2022-09-09T18:47:35;26.70;29.60
32173;DHT22;18679;45.190;5.722;2022-09-09T18:50:36;26.70;29.60
32173;DHT22;18679;45.190;5.722;2022-09-09T18:53:38;26.70;29.60
32173;DHT22;18679;45.190;5.722;2022-09-09T18:56:41;26.70;29.50
32173;DHT22;18679;45.190;5.722;2022-09-09T18:59:42;26.70;29.50
32173;DHT22;18679;45.190;5.722;2022-09-09T19:02:43;26.70;29.40
32173;DHT22;18679;45.190;5.722;2022-09-09T19:05:44;26.70;29.50
32173;DHT22;18679;45.190;5.722;2022-09-09T19:08:46;26.70;29.50
32173;DHT22;18679;45.190;5.722;2022-09-09T19:11:47;26.70;29.50
32173;DHT22;18679;45.190;5.722;2022-09-09T19:14:48;26.70;29.50
32173;DHT22;18679;45.190;5.722;2022-09-09T19:17:49;26.60;29.60
32173;DHT22;18679;45.190;5.722;2022-09-09T19:20:50;26.60;29.70
32173;DHT22;18679;45.190;5.722;2022-09-09T19:24:03;26.50;29.70
32173;DHT22;18679;45.190;5.722;2022-09-09T19:27:06;26.40;29.90
32173;DHT22;18679;45.190;5.722;2022-09-09T19:30:07;26.40;30.00
32173;DHT22;18679;45.190;5.722;2022-09-09T19:33:09;26.30;30.20
32173;DHT22;18679;45.190;5.722;2022-09-09T19:36:11;26.20;30.50
32173;DHT22;18679;45.190;5.722;2022-09-09T19:39:13;26.20;30.90
32173;DHT22;18679;45.190;5.722;2022-09-09T19:42:14;26.10;31.00
32173;DHT22;18679;45.190;5.722;2022-09-09T19:45:16;26.10;31.20
32173;DHT22;18679;45.190;5.722;2022-09-09T19:48:16;26.10;31.60
32173;DHT22;18679;45.190;5.722;2022-09-09T19:51:19;26.00;31.70
32173;DHT22;18679;45.190;5.722;2022-09-09T19:54:21;26.00;31.90
32173;DHT22;18679;45.190;5.722;2022-09-09T19:57:22;25.90;32.00
32173;DHT22;18679;45.190;5.722;2022-09-09T20:00:23;25.90;32.20
32173;DHT22;18679;45.190;5.722;2022-09-09T20:03:25;25.90;32.30
32173;DHT22;18679;45.190;5.722;2022-09-09T20:06:36;25.80;32.40
32173;DHT22;18679;45.190;5.722;2022-09-09T20:09:38;25.80;32.60
32173;DHT22;18679;45.190;5.722;2022-09-09T20:12:39;25.70;32.70
32173;DHT22;18679;45.190;5.722;2022-09-09T20:15:40;25.60;32.90
32173;DHT22;18679;45.190;5.722;2022-09-09T20:18:43;25.60;33.40
32173;DHT22;18679;45.190;5.722;2022-09-09T20:21:46;25.60;33.70
32173;DHT22;18679;45.190;5.722;2022-09-09T20:24:52;25.50;34.00
32173;DHT22;18679;45.190;5.722;2022-09-09T20:27:53;25.50;34.00
32173;DHT22;18679;45.190;5.722;2022-09-09T20:30:54;25.50;34.20
32173;DHT22;18679;45.190;5.722;2022-09-09T20:33:57;25.50;34.70
32173;DHT22;18679;45.190;5.722;2022-09-09T20:36:58;25.40;35.10
32173;DHT22;18679;45.190;5.722;2022-09-09T20:40:02;25.30;35.70
32173;DHT22;18679;45.190;5.722;2022-09-09T20:43:04;25.20;36.30
32173;DHT22;18679;45.190;5.722;2022-09-09T20:46:05;25.10;37.00
32173;DHT22;18679;45.190;5.722;2022-09-09T20:49:07;25.00;37.40
32173;DHT22;18679;45.190;5.722;2022-09-09T20:52:09;24.90;37.70
32173;DHT22;18679;45.190;5.722;2022-09-09T20:55:11;24.90;38.00
32173;DHT22;18679;45.190;5.722;2022-09-09T20:58:12;24.80;38.20
32173;DHT22;18679;45.190;5.722;2022-09-09T21:01:15;24.70;38.30